Time;durP1;ratioP1;P1;durP2;ratioP2;P2;SDS_P1;SDS_P2;PMS_P1;PMS_P2;Temp;Humidity;BMP_temperature;BMP_pressure;BME280_temperature;BME280_humidity;BME280_pressure;Samples;Min_cycle;Max_cycle;Signal;HPM_P1;HPM_P2
2021/06/23 00:00:27;;;;;;;28.23;10.00;;;27.30;99.90;;;;;;5114803;28;20188;-68
2021/06/23 00:02:53;;;;;;;22.47;8.87;;;27.20;99.90;;;;;;5115527;28;20551;-66
2021/06/23 00:05:19;;;;;;;23.90;9.33;;;27.10;99.90;;;;;;5115232;28;20420;-66
2021/06/23 00:07:45;;;;;;;22.33;8.87;;;27.10;99.90;;;;;;5115283;28;20580;-66
2021/06/23 00:10:12;;;;;;;20.50;9.47;;;27.00;99.90;;;;;;5115365;28;20462;-67
2021/06/23 00:12:39;;;;;;;19.20;8.63;;;27.00;99.90;;;;;;5115353;28;20206;-67
2021/06/23 00:15:06;;;;;;;24.07;8.67;;;27.00;99.90;;;;;;5115009;28;20393;-66
2021/06/23 00:17:31;;;;;;;21.13;10.23;;;27.10;99.90;;;;;;5115114;28;20886;-66
2021/06/23 00:19:57;;;;;;;18.77;9.30;;;27.00;99.90;;;;;;5114872;28;20409;-68
2021/06/23 00:22:23;;;;;;;21.90;9.07;;;27.00;99.90;;;;;;5114840;28;20531;-66
2021/06/23 00:24:48;;;;;;;24.17;9.33;;;26.90;99.90;;;;;;5114855;28;20167;-68
2021/06/23 00:27:14;;;;;;;25.83;9.60;;;26.90;99.90;;;;;;5114791;28;20231;-68
2021/06/23 00:29:39;;;;;;;19.67;9.63;;;26.80;99.90;;;;;;5114911;28;20254;-68
2021/06/23 00:32:15;;;;;;;28.03;11.83;;;26.70;99.90;;;;;;5094198;28;20235;-68
2021/06/23 00:34:40;;;;;;;26.90;10.70;;;26.70;99.90;;;;;;5094389;28;20397;-66
2021/06/23 00:37:06;;;;;;;26.47;10.30;;;26.70;99.90;;;;;;5092859;28;20467;-68
2021/06/23 00:39:31;;;;;;;25.30;11.00;;;26.60;99.90;;;;;;5094428;28;20271;-68
2021/06/23 00:41:57;;;;;;;20.73;9.70;;;26.60;99.90;;;;;;5109902;28;20200;-67
2021/06/23 00:44:23;;;;;;;32.13;10.30;;;26.50;99.90;;;;;;5094229;28;20192;-66
2021/06/23 00:46:49;;;;;;;20.33;10.70;;;26.40;99.90;;;;;;5092657;28;20773;-66
2021/06/23 00:49:15;;;;;;;24.47;10.10;;;26.40;99.90;;;;;;5094260;28;20536;-69
2021/06/23 00:51:41;;;;;;;24.30;9.50;;;26.40;99.90;;;;;;5093893;28;20429;-66
2021/06/23 00:54:10;;;;;;;23.17;9.50;;;26.40;99.90;;;;;;5094546;28;20180;-68
2021/06/23 00:56:37;;;;;;;21.10;9.07;;;26.30;99.90;;;;;;5094028;28;20184;-67
2021/06/23 00:59:04;;;;;;;38.17;10.50;;;26.40;99.90;;;;;;5094485;28;20417;-67
2021/06/23 01:01:32;;;;;;;29.37;9.13;;;26.40;99.90;;;;;;5093949;28;20421;-66
2021/06/23 01:04:00;;;;;;;17.97;9.53;;;26.40;99.90;;;;;;5092889;28;20944;-66
2021/06/23 01:06:25;;;;;;;27.30;11.00;;;26.30;99.90;;;;;;5093809;28;20504;-67
2021/06/23 01:08:52;;;;;;;19.17;9.23;;;26.20;99.90;;;;;;5094328;28;20523;-66
2021/06/23 01:11:20;;;;;;;20.57;8.20;;;26.00;99.90;;;;;;5093811;28;20192;-66
2021/06/23 01:14:05;;;;;;;21.37;8.93;;;26.00;99.90;;;;;;5092750;28;20422;-68
2021/06/23 01:16:34;;;;;;;21.53;8.60;;;25.80;99.90;;;;;;5093817;28;20539;-66
2021/06/23 01:19:05;;;;;;;19.90;9.00;;;25.80;99.90;;;;;;5092483;28;20421;-65
2021/06/23 01:21:30;;;;;;;20.60;8.13;;;25.70;99.90;;;;;;5093780;28;20942;-68
2021/06/23 01:23:56;;;;;;;26.60;8.17;;;25.70;99.90;;;;;;5093585;28;20456;-67
2021/06/23 01:26:21;;;;;;;17.47;7.13;;;25.70;99.90;;;;;;5093682;28;20224;-67
2021/06/23 01:28:47;;;;;;;19.27;7.17;;;25.70;99.90;;;;;;5094100;28;20208;-66
2021/06/23 01:31:18;;;;;;;18.43;7.30;;;25.70;99.90;;;;;;5092376;28;20243;-67
2021/06/23 01:33:44;;;;;;;29.37;10.47;;;25.80;99.90;;;;;;5094062;28;20164;-68
2021/06/23 01:36:10;;;;;;;25.50;8.17;;;25.70;99.90;;;;;;5093512;28;20485;-68
2021/06/23 01:38:35;;;;;;;22.40;9.40;;;25.80;99.90;;;;;;5093997;28;20421;-66
2021/06/23 01:41:01;;;;;;;20.07;8.13;;;25.80;99.90;;;;;;5092219;28;20211;-66
2021/06/23 01:43:27;;;;;;;20.50;8.73;;;25.80;99.90;;;;;;5093927;28;20183;-69
2021/06/23 01:45:53;;;;;;;26.67;9.53;;;25.70;99.90;;;;;;5093402;28;20268;-66
2021/06/23 01:48:20;;;;;;;20.47;7.90;;;25.80;99.90;;;;;;5093733;28;20222;-66
2021/06/23 01:51:00;;;;;;;18.23;7.73;;;25.90;99.90;;;;;;5093395;28;20192;-66
2021/06/23 01:53:27;;;;;;;15.93;9.03;;;25.70;99.90;;;;;;5093949;28;20421;-69
2021/06/23 01:55:53;;;;;;;23.27;8.40;;;25.60;99.90;;;;;;5093449;28;20896;-65
2021/06/23 01:58:20;;;;;;;23.90;8.10;;;25.60;99.90;;;;;;5093727;28;20440;-67
2021/06/23 02:01:08;;;;;;;24.90;8.43;;;25.60;99.90;;;;;;5091949;28;20425;-66
2021/06/23 02:03:45;;;;;;;29.10;9.00;;;25.60;99.90;;;;;;5093778;28;20417;-67
2021/06/23 02:06:26;;;;;;;25.87;9.50;;;25.60;99.90;;;;;;5097199;28;20527;-68
2021/06/23 02:09:09;;;;;;;19.53;7.90;;;25.50;99.90;;;;;;5097479;28;20472;-65
2021/06/23 02:11:47;;;;;;;18.87;9.00;;;25.50;99.90;;;;;;5097060;28;20428;-67
2021/06/23 02:14:42;;;;;;;21.50;8.47;;;25.40;99.90;;;;;;5095753;28;20926;-66
2021/06/23 02:17:10;;;;;;;21.10;8.90;;;25.40;99.90;;;;;;5095515;28;20509;-67
2021/06/23 02:19:47;;;;;;;21.77;9.23;;;25.20;99.90;;;;;;5095619;28;20438;-66
2021/06/23 02:22:16;;;;;;;22.40;8.77;;;25.10;99.90;;;;;;5096836;28;20411;-69
2021/06/23 02:24:43;;;;;;;21.83;8.60;;;24.90;99.90;;;;;;5096902;28;21022;-68
2021/06/23 02:27:09;;;;;;;13.50;8.20;;;24.70;99.90;;;;;;5096623;28;20972;-66
2021/06/23 02:29:35;;;;;;;19.43;8.80;;;24.50;99.90;;;;;;5095520;28;20412;-68
2021/06/23 02:32:02;;;;;;;17.27;9.50;;;24.40;99.90;;;;;;5096685;28;20421;-66
2021/06/23 02:34:28;;;;;;;17.87;8.83;;;24.50;99.90;;;;;;5096650;28;20938;-69
2021/06/23 02:36:54;;;;;;;15.20;7.87;;;24.60;99.90;;;;;;5096490;28;20432;-68
2021/06/23 02:39:20;;;;;;;20.10;7.90;;;24.60;99.90;;;;;;5096588;28;20181;-67
2021/06/23 02:41:45;;;;;;;23.30;8.33;;;24.50;99.90;;;;;;5096319;28;20932;-68
2021/06/23 02:44:11;;;;;;;26.63;9.67;;;24.40;99.90;;;;;;5096426;28;20498;-67
2021/06/23 02:46:37;;;;;;;18.30;8.47;;;24.40;99.90;;;;;;5096262;28;20201;-67
2021/06/23 02:49:03;;;;;;;21.67;9.27;;;24.60;99.90;;;;;;5095237;28;20222;-66
2021/06/23 02:51:35;;;;;;;21.63;8.20;;;24.70;99.90;;;;;;5096230;28;20221;-66
2021/06/23 02:54:01;;;;;;;20.63;8.97;;;24.70;99.90;;;;;;5095317;28;20933;-67
2021/06/23 02:56:27;;;;;;;13.80;8.00;;;24.70;99.90;;;;;;5096298;28;20466;-67
2021/06/23 02:58:54;;;;;;;22.07;7.97;;;24.60;99.90;;;;;;5096696;28;20497;-67
2021/06/23 03:01:20;;;;;;;27.30;8.77;;;24.70;99.90;;;;;;5094841;28;20488;-67
2021/06/23 03:03:46;;;;;;;22.27;7.83;;;24.70;99.90;;;;;;5095018;28;20415;-68
2021/06/23 03:06:11;;;;;;;16.97;8.00;;;24.70;99.90;;;;;;5094741;28;20213;-67
2021/06/23 03:08:38;;;;;;;18.67;7.77;;;24.70;99.90;;;;;;5094840;28;20473;-67
2021/06/23 03:11:04;;;;;;;20.23;7.10;;;24.80;99.90;;;;;;5095858;28;20202;-66
2021/06/23 03:13:30;;;;;;;20.07;8.20;;;24.80;99.90;;;;;;5096247;28;20772;-66
2021/06/23 03:15:56;;;;;;;24.73;8.30;;;25.00;99.90;;;;;;5094546;28;20419;-69
2021/06/23 03:18:22;;;;;;;22.60;8.33;;;25.00;99.90;;;;;;5096306;28;20422;-69
2021/06/23 03:20:48;;;;;;;27.53;9.20;;;24.90;99.90;;;;;;5095685;28;20195;-69
2021/06/23 03:23:14;;;;;;;22.67;10.47;;;24.90;99.90;;;;;;5095690;28;20470;-66
2021/06/23 03:25:39;;;;;;;24.17;7.97;;;25.10;99.90;;;;;;5095582;28;20202;-66
2021/06/23 03:28:06;;;;;;;18.30;8.57;;;25.10;99.90;;;;;;5095746;28;20250;-68
2021/06/23 03:30:33;;;;;;;17.20;8.53;;;25.10;99.90;;;;;;5095338;28;20201;-67
2021/06/23 03:32:58;;;;;;;17.93;8.20;;;25.10;99.90;;;;;;5094209;28;20452;-66
2021/06/23 03:35:25;;;;;;;28.87;11.50;;;25.20;99.90;;;;;;5095403;28;20423;-66
2021/06/23 03:37:52;;;;;;;17.60;8.07;;;25.20;99.90;;;;;;5095668;28;20455;-67
2021/06/23 03:40:18;;;;;;;18.50;8.33;;;25.20;99.90;;;;;;5095343;28;21031;-66
2021/06/23 03:42:45;;;;;;;22.63;7.27;;;25.10;99.90;;;;;;5095262;28;20432;-68
2021/06/23 03:45:11;;;;;;;28.13;8.90;;;25.10;99.90;;;;;;5095466;28;20435;-66
2021/06/23 03:47:38;;;;;;;19.47;10.20;;;25.00;99.90;;;;;;5095319;28;20470;-66
2021/06/23 03:50:05;;;;;;;14.40;8.60;;;25.00;99.90;;;;;;5095036;28;20435;-68
2021/06/23 03:52:30;;;;;;;20.73;8.53;;;25.10;99.90;;;;;;5093844;28;20425;-66
2021/06/23 03:54:56;;;;;;;21.27;8.17;;;25.10;99.90;;;;;;5095052;28;20396;-68
2021/06/23 03:57:22;;;;;;;25.73;9.03;;;25.30;99.90;;;;;;5093815;28;20193;-66
2021/06/23 03:59:47;;;;;;;19.30;8.37;;;25.30;99.90;;;;;;5094908;28;20250;-66
2021/06/23 04:02:13;;;;;;;20.83;9.33;;;25.30;99.90;;;;;;5094966;28;20197;-67
2021/06/23 04:04:38;;;;;;;13.50;7.37;;;25.40;99.90;;;;;;5094943;28;20690;-67
2021/06/23 04:07:04;;;;;;;16.00;7.40;;;25.40;99.90;;;;;;5093443;28;20318;-68
2021/06/23 04:09:29;;;;;;;22.47;8.40;;;25.50;99.90;;;;;;5093537;28;20171;-69
2021/06/23 04:11:55;;;;;;;19.73;6.73;;;25.40;99.90;;;;;;5094713;28;20195;-67
2021/06/23 04:14:21;;;;;;;18.30;7.70;;;25.60;99.90;;;;;;5093480;28;20183;-69
2021/06/23 04:16:46;;;;;;;26.20;7.90;;;25.60;99.90;;;;;;5094537;28;20192;-68
2021/06/23 04:19:12;;;;;;;20.67;8.37;;;25.60;99.90;;;;;;5094600;28;20176;-68
2021/06/23 04:21:38;;;;;;;18.03;7.97;;;25.60;99.90;;;;;;5094561;28;20196;-68
2021/06/23 04:24:04;;;;;;;20.97;9.20;;;25.70;99.90;;;;;;5093205;28;20239;-68
2021/06/23 04:26:29;;;;;;;17.90;8.27;;;25.80;99.90;;;;;;5094411;28;20443;-66
2021/06/23 04:28:55;;;;;;;21.70;7.90;;;25.90;99.90;;;;;;5094619;28;21033;-68
2021/06/23 04:31:20;;;;;;;17.17;7.00;;;25.90;99.90;;;;;;5094393;28;20199;-66
2021/06/23 04:33:46;;;;;;;16.43;8.73;;;26.00;99.90;;;;;;5094781;28;20183;-66
2021/06/23 04:36:12;;;;;;;19.60;7.43;;;26.00;99.90;;;;;;5094328;28;20195;-67
2021/06/23 04:38:38;;;;;;;20.60;9.53;;;26.00;99.90;;;;;;5093205;28;20195;-67
2021/06/23 04:41:04;;;;;;;18.20;8.33;;;25.90;99.90;;;;;;5093792;28;20202;-66
2021/06/23 04:43:29;;;;;;;25.80;9.07;;;26.00;99.90;;;;;;5093894;28;20429;-68
2021/06/23 04:45:55;;;;;;;22.47;7.87;;;26.00;99.90;;;;;;5092903;28;20417;-66
2021/06/23 04:48:20;;;;;;;20.30;8.63;;;26.10;99.90;;;;;;5092975;28;20223;-66
2021/06/23 04:50:46;;;;;;;21.23;7.37;;;26.10;99.90;;;;;;5094116;28;20681;-69
2021/06/23 04:53:12;;;;;;;27.50;9.10;;;26.10;99.90;;;;;;5093348;28;20653;-68
2021/06/23 04:55:37;;;;;;;17.43;7.70;;;26.30;99.90;;;;;;5093562;28;20267;-66
2021/06/23 04:58:03;;;;;;;21.77;8.47;;;26.40;99.90;;;;;;5092504;28;20180;-68
2021/06/23 05:00:29;;;;;;;15.70;7.60;;;26.40;99.90;;;;;;5087767;28;20211;-66
2021/06/23 05:02:55;;;;;;;21.37;8.80;;;26.70;99.90;;;;;;5091010;28;20442;-67
2021/06/23 05:05:20;;;;;;;18.30;7.70;;;27.00;99.90;;;;;;5089066;28;20219;-66
2021/06/23 05:07:46;;;;;;;20.70;6.97;;;27.30;99.90;;;;;;5090097;28;20227;-66
2021/06/23 05:10:12;;;;;;;17.43;7.23;;;27.50;99.90;;;;;;5090515;28;20281;-67
2021/06/23 05:12:38;;;;;;;15.03;7.70;;;27.50;99.90;;;;;;5091627;28;20189;-67
2021/06/23 05:15:04;;;;;;;24.63;7.77;;;27.70;99.90;;;;;;5108683;28;20656;-68
2021/06/23 05:17:30;;;;;;;17.43;7.50;;;28.10;99.90;;;;;;5093308;28;20187;-66
2021/06/23 05:19:56;;;;;;;19.20;8.87;;;28.00;99.90;;;;;;5093641;28;20760;-66
2021/06/23 05:22:22;;;;;;;15.37;7.23;;;28.20;99.90;;;;;;5093364;28;20439;-68
2021/06/23 05:24:48;;;;;;;13.50;7.40;;;28.40;99.90;;;;;;5092290;28;20665;-67
2021/06/23 05:27:14;;;;;;;20.70;8.47;;;28.80;99.90;;;;;;5092381;28;20561;-66
2021/06/23 05:29:39;;;;;;;17.27;6.93;;;28.60;99.90;;;;;;5088829;28;20176;-67
2021/06/23 05:32:05;;;;;;;13.83;6.97;;;28.90;99.90;;;;;;5087421;28;20204;-68
2021/06/23 05:34:31;;;;;;;14.73;6.47;;;28.60;99.90;;;;;;5093423;28;20645;-67
2021/06/23 05:36:57;;;;;;;19.40;7.20;;;29.00;99.90;;;;;;5091670;28;20505;-67
2021/06/23 05:39:24;;;;;;;14.43;6.97;;;29.10;99.90;;;;;;5084193;28;20650;-66
2021/06/23 05:41:49;;;;;;;14.33;7.20;;;29.00;99.90;;;;;;5093064;28;20566;-68
2021/06/23 05:44:15;;;;;;;20.07;6.23;;;29.00;99.90;;;;;;5092836;28;20527;-69
2021/06/23 05:46:40;;;;;;;11.37;6.40;;;29.00;99.90;;;;;;5088976;28;20211;-68
2021/06/23 05:49:06;;;;;;;15.33;6.43;;;29.20;99.90;;;;;;5087167;28;20295;-68
2021/06/23 05:51:32;;;;;;;15.67;6.40;;;29.10;99.90;;;;;;5090557;28;20559;-68
2021/06/23 05:53:58;;;;;;;11.77;5.90;;;29.00;99.90;;;;;;5092887;28;20433;-69
2021/06/23 05:56:23;;;;;;;10.60;6.40;;;29.10;99.90;;;;;;5092783;28;20265;-67
2021/06/23 05:58:49;;;;;;;13.23;6.07;;;29.30;99.90;;;;;;5090659;28;20189;-66
2021/06/23 06:01:14;;;;;;;17.07;7.03;;;29.40;99.90;;;;;;5091034;28;20226;-68
2021/06/23 06:03:40;;;;;;;9.47;5.70;;;29.30;99.90;;;;;;5096929;28;20423;-67
2021/06/23 06:06:06;;;;;;;14.23;5.10;;;29.20;99.90;;;;;;5090290;28;20551;-69
2021/06/23 06:08:32;;;;;;;14.10;6.00;;;29.30;99.90;;;;;;5090477;28;20230;-69
2021/06/23 06:10:57;;;;;;;11.47;5.23;;;29.30;99.90;;;;;;5094540;28;20567;-69
2021/06/23 06:13:23;;;;;;;13.10;5.10;;;29.90;99.90;;;;;;5093029;28;20188;-68
2021/06/23 06:15:49;;;;;;;13.17;4.83;;;29.90;99.90;;;;;;5110964;28;20219;-66
2021/06/23 06:18:15;;;;;;;8.40;4.20;;;29.70;99.90;;;;;;5087338;28;20445;-68
2021/06/23 06:20:40;;;;;;;10.37;5.13;;;29.80;99.90;;;;;;5094977;28;20260;-69
2021/06/23 06:23:06;;;;;;;12.17;4.30;;;30.00;99.90;;;;;;5094310;28;20330;-66
2021/06/23 06:25:33;;;;;;;6.70;3.50;;;30.40;99.90;;;;;;5105695;28;20201;-66
2021/06/23 06:27:59;;;;;;;10.77;6.93;;;30.50;99.90;;;;;;5090389;28;20229;-66
2021/06/23 06:30:26;;;;;;;10.63;3.93;;;30.80;99.90;;;;;;5094791;28;20808;-68
2021/06/23 06:32:52;;;;;;;9.40;4.17;;;30.60;99.90;;;;;;5095124;28;20821;-66
2021/06/23 06:35:18;;;;;;;7.30;3.60;;;30.50;99.40;;;;;;5091623;28;20514;-69
2021/06/23 06:37:44;;;;;;;7.93;3.33;;;30.60;97.60;;;;;;5090600;28;20442;-68
2021/06/23 06:40:10;;;;;;;5.87;4.17;;;30.70;97.00;;;;;;5091645;28;20462;-69
2021/06/23 06:42:36;;;;;;;4.70;3.20;;;30.70;97.30;;;;;;5089951;28;20431;-69
2021/06/23 06:45:03;;;;;;;7.80;3.67;;;30.70;95.10;;;;;;5091258;28;20787;-68
2021/06/23 06:47:28;;;;;;;8.87;3.20;;;30.70;94.10;;;;;;5095159;28;20288;-66
2021/06/23 06:49:54;;;;;;;6.90;2.83;;;31.00;95.00;;;;;;5092658;28;20503;-68
2021/06/23 06:52:20;;;;;;;7.23;3.20;;;31.50;96.30;;;;;;5092678;28;20202;-66
2021/06/23 06:54:46;;;;;;;4.63;2.70;;;31.70;96.00;;;;;;5094198;28;20191;-66
2021/06/23 06:57:11;;;;;;;8.60;2.60;;;31.40;93.50;;;;;;5109815;28;20264;-66
2021/06/23 06:59:37;;;;;;;5.90;3.03;;;31.70;94.20;;;;;;5091042;28;20766;-69
2021/06/23 07:02:03;;;;;;;7.37;2.90;;;31.90;95.30;;;;;;5090733;28;20252;-69
2021/06/23 07:04:28;;;;;;;4.53;2.93;;;31.90;93.70;;;;;;5089540;28;20290;-69
2021/06/23 07:06:54;;;;;;;5.73;3.13;;;31.70;92.20;;;;;;5094286;28;20950;-69
2021/06/23 07:09:20;;;;;;;8.23;4.10;;;31.60;91.30;;;;;;5087805;28;20262;-68
2021/06/23 07:11:47;;;;;;;9.33;4.10;;;31.80;91.10;;;;;;5094091;28;20247;-66
2021/06/23 07:14:15;;;;;;;5.67;2.77;;;32.00;90.10;;;;;;5090814;28;20696;-68
2021/06/23 07:16:40;;;;;;;3.50;2.73;;;31.80;90.30;;;;;;5093981;28;20444;-69
2021/06/23 07:19:06;;;;;;;5.33;3.23;;;31.70;90.50;;;;;;5091748;28;20927;-67
2021/06/23 07:21:32;;;;;;;6.23;3.00;;;31.70;90.70;;;;;;5094156;28;20205;-68
2021/06/23 07:23:58;;;;;;;12.30;3.00;;;32.00;88.50;;;;;;5091541;28;20307;-66
2021/06/23 07:26:26;;;;;;;4.83;3.30;;;31.90;86.40;;;;;;5093413;28;20242;-68
2021/06/23 07:28:53;;;;;;;9.77;3.33;;;32.00;85.60;;;;;;5087925;28;20853;-66
2021/06/23 07:31:39;;;;;;;8.03;3.57;;;32.10;86.60;;;;;;5089271;28;20448;-66
2021/06/23 07:34:20;;;;;;;10.30;3.77;;;32.10;87.30;;;;;;5082001;28;20463;-69
2021/06/23 07:39:14;;;;;;;10.63;3.53;;;32.10;84.30;;;;;;5089060;28;20866;-68
2021/06/23 07:41:42;;;;;;;6.40;2.87;;;32.40;85.20;;;;;;5087016;28;20210;-66
2021/06/23 07:44:10;;;;;;;7.10;2.83;;;32.70;85.50;;;;;;5089901;28;20433;-69
2021/06/23 07:46:38;;;;;;;5.50;3.00;;;32.60;83.50;;;;;;5088238;28;20915;-68
2021/06/23 07:49:08;;;;;;;4.50;2.70;;;32.70;81.60;;;;;;5090602;28;20480;-69
2021/06/23 07:51:49;;;;;;;5.67;2.77;;;32.60;81.30;;;;;;5080404;28;20485;-66
2021/06/23 07:54:23;;;;;;;6.77;2.70;;;33.00;83.60;;;;;;5087360;28;20458;-67
2021/06/23 08:01:03;;;;;;;5.27;3.33;;;33.10;82.50;;;;;;5089931;28;20520;-67
2021/06/23 08:10:47;;;;;;;2.73;2.47;;;33.10;74.30;;;;;;5085958;28;20514;-68
2021/06/23 08:13:14;;;;;;;8.83;3.23;;;33.00;74.80;;;;;;5089796;28;20456;-68
2021/06/23 08:15:42;;;;;;;2.83;2.23;;;33.60;82.50;;;;;;5090391;28;20449;-67
2021/06/23 08:18:09;;;;;;;6.90;2.70;;;33.20;74.00;;;;;;5091992;28;20429;-66
2021/06/23 08:20:35;;;;;;;5.97;2.27;;;33.20;85.80;;;;;;5094125;28;20532;-66
2021/06/23 08:23:01;;;;;;;6.70;2.67;;;33.00;79.50;;;;;;5093914;28;20545;-67
2021/06/23 08:25:27;;;;;;;6.20;2.73;;;33.00;74.70;;;;;;5090535;28;20230;-66
2021/06/23 08:27:53;;;;;;;3.73;2.37;;;33.20;78.70;;;;;;5092067;28;20874;-66
2021/06/23 08:30:20;;;;;;;7.80;2.53;;;33.50;84.70;;;;;;5092111;28;20200;-67
2021/06/23 08:32:47;;;;;;;5.00;2.80;;;33.40;86.10;;;;;;5091370;28;20440;-68
2021/06/23 08:35:13;;;;;;;9.10;3.70;;;33.20;87.90;;;;;;5099752;28;20451;-69
2021/06/23 08:37:40;;;;;;;9.40;2.70;;;33.10;88.40;;;;;;5097147;28;20477;-68
2021/06/23 08:40:08;;;;;;;7.37;2.77;;;32.90;89.80;;;;;;5092025;28;20445;-69
2021/06/23 08:42:34;;;;;;;7.73;2.77;;;32.80;90.10;;;;;;5077519;28;20422;-67
2021/06/23 08:45:00;;;;;;;8.50;3.20;;;32.40;90.10;;;;;;5084366;28;20425;-66
2021/06/23 08:47:26;;;;;;;12.83;3.60;;;32.40;90.20;;;;;;5091727;28;20487;-66
2021/06/23 08:49:52;;;;;;;9.23;2.80;;;32.50;87.60;;;;;;5091076;28;20314;-69
2021/06/23 08:52:18;;;;;;;6.87;2.87;;;32.80;77.30;;;;;;5090766;28;20731;-66
2021/06/23 08:54:45;;;;;;;6.23;3.20;;;32.90;87.90;;;;;;5093239;28;20413;-69
2021/06/23 08:57:11;;;;;;;6.60;2.87;;;32.90;79.10;;;;;;5081806;28;20280;-68
2021/06/23 08:59:41;;;;;;;11.53;3.23;;;33.20;77.30;;;;;;5089624;28;20892;-68
2021/06/23 09:02:15;;;;;;;9.10;3.07;;;33.40;75.80;;;;;;5091357;28;20211;-66
2021/06/23 09:05:00;;;;;;;7.43;3.23;;;33.70;81.50;;;;;;5098536;28;20424;-66
2021/06/23 09:07:59;;;;;;;10.07;2.87;;;33.80;74.80;;;;;;5089531;28;20468;-68
2021/06/23 09:10:28;;;;;;;6.27;3.57;;;34.10;75.90;;;;;;5058271;28;20510;-67
2021/06/23 09:13:11;;;;;;;7.83;2.83;;;33.90;74.80;;;;;;5107071;28;20437;-66
2021/06/23 09:15:54;;;;;;;4.70;2.97;;;33.80;73.60;;;;;;5086476;28;20543;-66
2021/06/23 09:18:30;;;;;;;6.53;3.50;;;34.10;74.80;;;;;;5093258;28;20493;-68
2021/06/23 09:20:59;;;;;;;4.90;2.90;;;34.30;74.20;;;;;;5089493;28;20457;-66
2021/06/23 09:23:38;;;;;;;6.63;3.10;;;34.30;74.30;;;;;;5088541;28;20946;-66
2021/06/23 09:26:17;;;;;;;3.97;2.77;;;34.40;74.40;;;;;;5087439;28;20510;-67
2021/06/23 09:28:44;;;;;;;12.17;3.17;;;34.60;73.80;;;;;;5088872;28;20482;-68
2021/06/23 09:31:10;;;;;;;4.83;3.30;;;34.90;74.00;;;;;;5088035;28;20451;-66
2021/06/23 09:33:36;;;;;;;4.33;3.67;;;34.70;73.40;;;;;;5086919;28;20455;-66
2021/06/23 09:36:08;;;;;;;5.93;3.10;;;34.70;74.30;;;;;;5089150;28;20441;-66
2021/06/23 09:38:37;;;;;;;9.20;3.07;;;34.60;75.30;;;;;;5089588;28;20837;-67
2021/06/23 09:41:24;;;;;;;8.43;3.97;;;34.50;73.80;;;;;;5089394;28;20479;-67
2021/06/23 09:43:53;;;;;;;7.00;3.33;;;34.70;74.60;;;;;;5087956;28;20437;-66
2021/06/23 09:46:50;;;;;;;10.37;3.20;;;34.90;75.00;;;;;;5090213;28;20464;-68
2021/06/23 09:49:21;;;;;;;13.70;4.87;;;34.80;74.30;;;;;;5087768;28;20445;-66
2021/06/23 09:51:52;;;;;;;12.00;4.30;;;34.90;74.10;;;;;;5089489;28;20443;-68
2021/06/23 09:54:27;;;;;;;11.43;3.97;;;34.80;74.50;;;;;;5091305;28;20420;-66
2021/06/23 09:56:54;;;;;;;10.03;3.90;;;34.60;73.80;;;;;;5091220;28;20468;-68
2021/06/23 09:59:38;;;;;;;6.73;3.00;;;34.80;73.20;;;;;;5092120;28;20417;-66
2021/06/23 10:02:04;;;;;;;11.03;3.97;;;34.70;74.30;;;;;;5090697;28;20448;-65
2021/06/23 10:04:39;;;;;;;5.73;3.43;;;35.00;73.80;;;;;;5085286;28;20424;-68
2021/06/23 10:07:04;;;;;;;8.47;3.80;;;35.20;75.00;;;;;;5087720;28;20512;-68
2021/06/23 10:09:32;;;;;;;10.13;4.50;;;35.20;74.10;;;;;;5089549;28;20797;-67
2021/06/23 10:12:08;;;;;;;12.20;3.67;;;35.00;74.30;;;;;;5089266;28;20206;-65
2021/06/23 10:14:42;;;;;;;7.23;3.40;;;34.80;74.70;;;;;;5087581;28;20503;-66
2021/06/23 10:17:09;;;;;;;8.50;3.67;;;34.60;74.70;;;;;;5089626;28;20953;-66
2021/06/23 10:19:35;;;;;;;11.40;4.13;;;34.80;74.00;;;;;;5090323;28;20483;-67
2021/06/23 10:22:05;;;;;;;7.10;3.27;;;34.80;74.80;;;;;;5077188;28;20507;-67
2021/06/23 10:24:33;;;;;;;20.73;4.93;;;34.90;73.70;;;;;;5081220;28;20476;-66
2021/06/23 10:27:02;;;;;;;20.17;5.13;;;35.00;73.90;;;;;;5095240;28;20952;-68
2021/06/23 10:29:34;;;;;;;8.07;4.10;;;35.20;73.30;;;;;;5095093;28;20421;-66
2021/06/23 10:32:02;;;;;;;8.33;3.63;;;35.20;73.30;;;;;;5095423;28;20432;-67
2021/06/23 10:34:27;;;;;;;9.63;3.93;;;35.20;72.60;;;;;;5095363;28;20421;-67
2021/06/23 10:36:55;;;;;;;7.90;4.10;;;35.50;72.50;;;;;;5096566;28;20941;-66
2021/06/23 10:39:22;;;;;;;11.43;3.57;;;35.40;72.10;;;;;;5085632;28;20448;-68
2021/06/23 10:41:56;;;;;;;8.17;4.57;;;35.40;69.80;;;;;;5095565;28;20449;-67
2021/06/23 10:44:35;;;;;;;7.03;3.57;;;35.40;70.20;;;;;;5096192;28;20504;-68
2021/06/23 10:47:03;;;;;;;7.60;2.70;;;35.40;70.70;;;;;;5095722;28;20528;-67
2021/06/23 10:49:44;;;;;;;6.97;2.90;;;35.10;71.50;;;;;;5074892;28;20954;-66
2021/06/23 10:52:25;;;;;;;3.63;2.40;;;35.60;71.30;;;;;;5085946;28;20960;-66
2021/06/23 10:54:51;;;;;;;4.60;3.20;;;35.60;70.90;;;;;;5093525;28;20413;-67
2021/06/23 10:57:38;;;;;;;13.03;3.40;;;35.50;71.10;;;;;;5095942;28;20444;-67
2021/06/23 11:00:10;;;;;;;9.07;3.07;;;35.60;71.00;;;;;;5091874;28;20429;-66
2021/06/23 11:02:39;;;;;;;7.67;4.47;;;35.40;70.80;;;;;;5092364;28;20437;-65
2021/06/23 11:05:07;;;;;;;14.60;3.90;;;35.20;71.60;;;;;;5092395;28;20436;-67
2021/06/23 11:07:52;;;;;;;8.80;3.50;;;35.30;72.40;;;;;;5108964;28;20552;-67
2021/06/23 11:10:38;;;;;;;9.13;4.00;;;35.40;69.80;;;;;;5091265;28;20877;-67
2021/06/23 11:13:15;;;;;;;10.10;4.77;;;35.70;72.20;;;;;;5089065;28;20444;-68
2021/06/23 11:15:42;;;;;;;9.13;4.03;;;35.70;69.50;;;;;;5085428;28;20444;-68
2021/06/23 11:18:38;;;;;;;8.27;3.83;;;35.40;72.10;;;;;;5087113;28;20433;-67
2021/06/23 11:21:06;;;;;;;12.23;3.90;;;35.40;72.20;;;;;;5093072;28;20479;-66
2021/06/23 11:23:41;;;;;;;9.90;3.27;;;35.20;70.20;;;;;;5087735;28;20469;-67
2021/06/23 11:26:29;;;;;;;10.80;3.87;;;35.10;71.00;;;;;;5090942;28;20436;-66
2021/06/23 11:29:18;;;;;;;8.30;3.63;;;35.20;70.50;;;;;;5075991;28;20472;-65
2021/06/23 11:31:50;;;;;;;6.90;3.73;;;35.50;69.50;;;;;;5089966;28;20806;-69
2021/06/23 11:34:38;;;;;;;11.27;4.40;;;35.80;69.30;;;;;;5092823;28;20427;-67
2021/06/23 11:37:05;;;;;;;11.37;3.70;;;35.70;72.30;;;;;;5088367;28;20465;-65
2021/06/23 11:39:31;;;;;;;10.57;3.73;;;35.70;71.80;;;;;;5092829;28;20629;-67
2021/06/23 11:41:58;;;;;;;13.90;4.50;;;35.40;69.80;;;;;;5089306;28;20871;-67
2021/06/23 11:44:24;;;;;;;10.90;4.10;;;35.20;72.00;;;;;;5090001;28;20208;-67
2021/06/23 11:46:49;;;;;;;8.40;3.97;;;35.10;71.50;;;;;;5088780;28;20506;-65
2021/06/23 11:49:15;;;;;;;9.40;3.97;;;35.20;71.70;;;;;;5105843;28;20209;-66
2021/06/23 11:51:42;;;;;;;10.57;4.10;;;35.10;70.80;;;;;;5090834;28;20212;-66
2021/06/23 11:54:08;;;;;;;8.60;3.90;;;35.00;71.40;;;;;;5092101;28;20258;-68
2021/06/23 11:56:34;;;;;;;9.57;3.63;;;35.30;70.60;;;;;;5093181;28;20478;-67
2021/06/23 11:58:59;;;;;;;7.80;4.30;;;35.40;69.60;;;;;;5092389;28;20202;-67
2021/06/23 12:01:25;;;;;;;12.87;3.57;;;35.30;70.80;;;;;;5093430;28;20705;-66
2021/06/23 12:03:52;;;;;;;10.17;3.90;;;35.40;68.90;;;;;;5093133;28;20185;-67
2021/06/23 12:06:18;;;;;;;12.77;3.90;;;35.50;70.20;;;;;;5092054;28;20553;-67
2021/06/23 12:08:44;;;;;;;10.77;4.33;;;35.60;69.50;;;;;;5109610;28;20472;-66
2021/06/23 12:11:09;;;;;;;8.47;3.37;;;35.30;69.50;;;;;;5095752;28;20832;-68
2021/06/23 12:13:37;;;;;;;6.20;3.57;;;35.20;70.50;;;;;;5093893;28;20638;-66
2021/06/23 12:16:02;;;;;;;9.40;3.33;;;35.40;70.10;;;;;;5095059;28;20669;-65
2021/06/23 12:18:28;;;;;;;8.20;4.10;;;35.40;69.00;;;;;;5094170;28;20478;-67
2021/06/23 12:20:54;;;;;;;7.93;3.57;;;35.50;69.50;;;;;;5095226;28;20192;-66
2021/06/23 12:23:20;;;;;;;6.43;3.50;;;35.70;69.20;;;;;;5100968;28;20655;-65
2021/06/23 12:25:47;;;;;;;8.70;3.43;;;35.80;68.70;;;;;;5102525;28;20217;-68
2021/06/23 12:28:15;;;;;;;7.40;3.67;;;35.90;71.30;;;;;;5091309;28;20662;-67
2021/06/23 12:30:43;;;;;;;12.87;4.17;;;36.00;69.90;;;;;;5118724;27;20440;-66
2021/06/23 12:33:11;;;;;;;21.00;4.33;;;36.00;68.80;;;;;;5094053;28;20433;-65
2021/06/23 12:35:38;;;;;;;10.20;3.47;;;36.00;69.10;;;;;;5092095;28;20445;-67
2021/06/23 12:38:09;;;;;;;8.23;2.87;;;36.00;68.30;;;;;;5091618;28;20455;-65
2021/06/23 12:40:36;;;;;;;7.27;3.63;;;36.30;66.20;;;;;;5090524;28;20436;-67
2021/06/23 12:43:02;;;;;;;4.80;2.97;;;36.40;67.00;;;;;;5090966;28;20421;-65
2021/06/23 12:45:43;;;;;;;7.00;3.80;;;36.00;66.90;;;;;;5088483;28;20982;-66
2021/06/23 12:48:09;;;;;;;8.20;3.90;;;36.20;67.00;;;;;;5090488;28;20508;-67
2021/06/23 12:50:36;;;;;;;6.70;3.73;;;36.30;65.80;;;;;;5091430;28;20444;-66
2021/06/23 12:53:02;;;;;;;8.70;3.20;;;36.40;66.50;;;;;;5092782;28;20930;-66
2021/06/23 12:55:28;;;;;;;12.90;4.80;;;36.20;67.70;;;;;;5092308;28;20433;-68
2021/06/23 12:57:55;;;;;;;6.63;3.60;;;36.10;69.00;;;;;;5093772;28;20523;-66
2021/06/23 13:00:22;;;;;;;14.13;3.87;;;36.00;68.60;;;;;;5092963;28;20287;-67